sensor_id;sensor_type;location;lat;lon;timestamp;temperature;humidity
3528;DHT22;1778;47.966;7.854;2024-03-02T00:00:13;3.70;99.90
3528;DHT22;1778;47.966;7.854;2024-03-02T00:01:15;3.80;99.90
3528;DHT22;1778;47.966;7.854;2024-03-02T00:02:16;3.80;99.90
3528;DHT22;1778;47.966;7.854;2024-03-02T00:03:18;3.80;99.90
3528;DHT22;1778;47.966;7.854;2024-03-02T00:04:20;3.80;99.90
3528;DHT22;1778;47.966;7.854;2024-03-02T00:05:22;3.90;99.90
3528;DHT22;1778;47.966;7.854;2024-03-02T00:06:24;3.90;99.90
3528;DHT22;1778;47.966;7.854;2024-03-02T00:07:26;3.90;99.90
3528;DHT22;1778;47.966;7.854;2024-03-02T00:08:27;3.80;99.90
3528;DHT22;1778;47.966;7.854;2024-03-02T00:09:29;3.80;99.90
3528;DHT22;1778;47.966;7.854;2024-03-02T00:10:38;3.90;99.90
3528;DHT22;1778;47.966;7.854;2024-03-02T00:11:43;3.90;99.90
3528;DHT22;1778;47.966;7.854;2024-03-02T00:12:47;3.90;99.90
3528;DHT22;1778;47.966;7.854;2024-03-02T00:13:48;3.90;99.90
3528;DHT22;1778;47.966;7.854;2024-03-02T00:14:50;3.80;99.90
3528;DHT22;1778;47.966;7.854;2024-03-02T00:15:53;3.80;99.90
3528;DHT22;1778;47.966;7.854;2024-03-02T00:16:55;3.70;99.90
3528;DHT22;1778;47.966;7.854;2024-03-02T00:17:57;3.70;99.90
3528;DHT22;1778;47.966;7.854;2024-03-02T00:19:04;3.70;99.90
3528;DHT22;1778;47.966;7.854;2024-03-02T00:20:09;3.80;99.90
3528;DHT22;1778;47.966;7.854;2024-03-02T00:21:11;3.80;99.90
3528;DHT22;1778;47.966;7.854;2024-03-02T00:22:14;3.80;99.90
3528;DHT22;1778;47.966;7.854;2024-03-02T00:23:16;3.70;99.90
3528;DHT22;1778;47.966;7.854;2024-03-02T00:24:45;3.70;99.90
3528;DHT22;1778;47.966;7.854;2024-03-02T00:25:57;3.70;99.90
3528;DHT22;1778;47.966;7.854;2024-03-02T00:26:59;3.70;99.90
3528;DHT22;1778;47.966;7.854;2024-03-02T00:28:00;3.70;99.90
3528;DHT22;1778;47.966;7.854;2024-03-02T00:29:02;3.60;99.90
3528;DHT22;1778;47.966;7.854;2024-03-02T00:30:46;3.70;99.90
3528;DHT22;1778;47.966;7.854;2024-03-02T00:31:52;3.60;99.90
3528;DHT22;1778;47.966;7.854;2024-03-02T00:32:54;3.70;99.90
3528;DHT22;1778;47.966;7.854;2024-03-02T00:33:56;3.60;99.90
3528;DHT22;1778;47.966;7.854;2024-03-02T00:35:01;3.70;99.90
3528;DHT22;1778;47.966;7.854;2024-03-02T00:36:04;3.70;99.90
3528;DHT22;1778;47.966;7.854;2024-03-02T00:37:05;3.70;99.90
3528;DHT22;1778;47.966;7.854;2024-03-02T00:38:08;3.70;99.90
3528;DHT22;1778;47.966;7.854;2024-03-02T00:39:12;3.60;99.90
3528;DHT22;1778;47.966;7.854;2024-03-02T00:40:15;3.70;99.90
3528;DHT22;1778;47.966;7.854;2024-03-02T00:41:22;3.60;99.90
3528;DHT22;1778;47.966;7.854;2024-03-02T00:42:27;3.60;99.90
3528;DHT22;1778;47.966;7.854;2024-03-02T00:44:43;3.70;99.90
3528;DHT22;1778;47.966;7.854;2024-03-02T00:45:45;3.70;99.90
3528;DHT22;1778;47.966;7.854;2024-03-02T00:46:46;3.60;99.90
3528;DHT22;1778;47.966;7.854;2024-03-02T00:47:48;3.70;99.90
3528;DHT22;1778;47.966;7.854;2024-03-02T00:48:57;3.60;99.90
3528;DHT22;1778;47.966;7.854;2024-03-02T00:49:59;3.60;99.90
3528;DHT22;1778;47.966;7.854;2024-03-02T00:51:03;3.60;99.90
3528;DHT22;1778;47.966;7.854;2024-03-02T00:52:05;3.60;99.90
3528;DHT22;1778;47.966;7.854;2024-03-02T00:53:12;3.60;99.90
3528;DHT22;1778;47.966;7.854;2024-03-02T00:54:14;3.70;99.90
3528;DHT22;1778;47.966;7.854;2024-03-02T00:55:16;3.70;99.90
3528;DHT22;1778;47.966;7.854;2024-03-02T00:56:17;3.70;99.90
3528;DHT22;1778;47.966;7.854;2024-03-02T00:57:18;3.70;99.90
3528;DHT22;1778;47.966;7.854;2024-03-02T00:58:20;3.70;99.90
3528;DHT22;1778;47.966;7.854;2024-03-02T00:59:23;3.70;99.90
3528;DHT22;1778;47.966;7.854;2024-03-02T01:00:25;3.70;99.90
3528;DHT22;1778;47.966;7.854;2024-03-02T01:01:26;3.70;99.90
3528;DHT22;1778;47.966;7.854;2024-03-02T01:02:28;3.70;99.90
3528;DHT22;1778;47.966;7.854;2024-03-02T01:03:31;3.60;99.90
3528;DHT22;1778;47.966;7.854;2024-03-02T01:04:33;3.60;99.90
3528;DHT22;1778;47.966;7.854;2024-03-02T01:05:35;3.60;99.90
3528;DHT22;1778;47.966;7.854;2024-03-02T01:06:36;3.60;99.90
3528;DHT22;1778;47.966;7.854;2024-03-02T01:07:38;3.60;99.90
3528;DHT22;1778;47.966;7.854;2024-03-02T01:08:40;3.60;99.90
3528;DHT22;1778;47.966;7.854;2024-03-02T01:09:41;3.70;99.90
3528;DHT22;1778;47.966;7.854;2024-03-02T01:10:43;3.70;99.90
3528;DHT22;1778;47.966;7.854;2024-03-02T01:11:44;3.60;99.90
3528;DHT22;1778;47.966;7.854;2024-03-02T01:12:46;3.60;99.90
3528;DHT22;1778;47.966;7.854;2024-03-02T01:13:47;3.70;99.90
3528;DHT22;1778;47.966;7.854;2024-03-02T01:14:49;3.70;99.90
3528;DHT22;1778;47.966;7.854;2024-03-02T01:15:50;3.70;99.90
3528;DHT22;1778;47.966;7.854;2024-03-02T01:16:52;3.60;99.90
3528;DHT22;1778;47.966;7.854;2024-03-02T01:17:53;3.70;99.90
3528;DHT22;1778;47.966;7.854;2024-03-02T01:18:56;3.60;99.90
3528;DHT22;1778;47.966;7.854;2024-03-02T01:19:58;3.60;99.90
3528;DHT22;1778;47.966;7.854;2024-03-02T01:20:59;3.60;99.90
3528;DHT22;1778;47.966;7.854;2024-03-02T01:22:01;3.60;99.90
3528;DHT22;1778;47.966;7.854;2024-03-02T01:23:02;3.70;99.90
3528;DHT22;1778;47.966;7.854;2024-03-02T01:24:04;3.70;99.90
3528;DHT22;1778;47.966;7.854;2024-03-02T01:25:06;3.70;99.90
3528;DHT22;1778;47.966;7.854;2024-03-02T01:26:07;3.60;99.90
3528;DHT22;1778;47.966;7.854;2024-03-02T01:27:09;3.60;99.90
3528;DHT22;1778;47.966;7.854;2024-03-02T01:28:10;3.60;99.90
3528;DHT22;1778;47.966;7.854;2024-03-02T01:29:12;3.60;99.90
3528;DHT22;1778;47.966;7.854;2024-03-02T01:30:13;3.60;99.90
3528;DHT22;1778;47.966;7.854;2024-03-02T01:31:15;3.60;99.90
3528;DHT22;1778;47.966;7.854;2024-03-02T01:32:16;3.60;99.90
3528;DHT22;1778;47.966;7.854;2024-03-02T01:33:18;3.70;99.90
3528;DHT22;1778;47.966;7.854;2024-03-02T01:34:20;3.60;99.90
3528;DHT22;1778;47.966;7.854;2024-03-02T01:35:22;3.60;99.90
3528;DHT22;1778;47.966;7.854;2024-03-02T01:36:24;3.60;99.90
3528;DHT22;1778;47.966;7.854;2024-03-02T01:37:25;3.60;99.90
3528;DHT22;1778;47.966;7.854;2024-03-02T01:38:27;3.60;99.90
3528;DHT22;1778;47.966;7.854;2024-03-02T01:39:29;3.60;99.90
3528;DHT22;1778;47.966;7.854;2024-03-02T01:40:35;3.60;99.90
3528;DHT22;1778;47.966;7.854;2024-03-02T01:41:36;3.60;99.90
3528;DHT22;1778;47.966;7.854;2024-03-02T01:42:38;3.60;99.90
3528;DHT22;1778;47.966;7.854;2024-03-02T01:43:40;3.50;99.90
3528;DHT22;1778;47.966;7.854;2024-03-02T01:44:42;3.50;99.90
3528;DHT22;1778;47.966;7.854;2024-03-02T01:45:43;3.60;99.90
3528;DHT22;1778;47.966;7.854;2024-03-02T01:46:45;3.60;99.90
3528;DHT22;1778;47.966;7.854;2024-03-02T01:47:47;3.60;99.90
3528;DHT22;1778;47.966;7.854;2024-03-02T01:48:49;3.60;99.90
3528;DHT22;1778;47.966;7.854;2024-03-02T01:49:51;3.60;99.90
3528;DHT22;1778;47.966;7.854;2024-03-02T01:50:52;3.60;99.90
3528;DHT22;1778;47.966;7.854;2024-03-02T01:51:54;3.60;99.90
3528;DHT22;1778;47.966;7.854;2024-03-02T01:52:56;3.60;99.90
3528;DHT22;1778;47.966;7.854;2024-03-02T01:53:58;3.60;99.90
3528;DHT22;1778;47.966;7.854;2024-03-02T01:54:59;3.60;99.90
3528;DHT22;1778;47.966;7.854;2024-03-02T01:56:01;3.60;99.90
3528;DHT22;1778;47.966;7.854;2024-03-02T01:57:03;3.60;99.90
3528;DHT22;1778;47.966;7.854;2024-03-02T01:58:04;3.60;99.90
3528;DHT22;1778;47.966;7.854;2024-03-02T01:59:06;3.60;99.90
3528;DHT22;1778;47.966;7.854;2024-03-02T02:00:08;3.60;99.90
3528;DHT22;1778;47.966;7.854;2024-03-02T02:01:14;3.60;99.90
3528;DHT22;1778;47.966;7.854;2024-03-02T02:02:16;3.70;99.90
3528;DHT22;1778;47.966;7.854;2024-03-02T02:03:17;3.70;99.90
3528;DHT22;1778;47.966;7.854;2024-03-02T02:04:18;3.60;99.90
3528;DHT22;1778;47.966;7.854;2024-03-02T02:05:23;3.70;99.90
3528;DHT22;1778;47.966;7.854;2024-03-02T02:06:24;3.70;99.90
3528;DHT22;1778;47.966;7.854;2024-03-02T02:07:26;3.70;99.90
3528;DHT22;1778;47.966;7.854;2024-03-02T02:08:27;3.70;99.90
3528;DHT22;1778;47.966;7.854;2024-03-02T02:09:29;3.70;99.90
3528;DHT22;1778;47.966;7.854;2024-03-02T02:10:31;3.70;99.90
3528;DHT22;1778;47.966;7.854;2024-03-02T02:11:33;3.60;99.90
3528;DHT22;1778;47.966;7.854;2024-03-02T02:12:34;3.60;99.90
3528;DHT22;1778;47.966;7.854;2024-03-02T02:13:36;3.60;99.90
3528;DHT22;1778;47.966;7.854;2024-03-02T02:14:37;3.60;99.90
3528;DHT22;1778;47.966;7.854;2024-03-02T02:15:41;3.70;99.90
3528;DHT22;1778;47.966;7.854;2024-03-02T02:16:42;3.70;99.90
3528;DHT22;1778;47.966;7.854;2024-03-02T02:17:44;3.70;99.90
3528;DHT22;1778;47.966;7.854;2024-03-02T02:18:45;3.60;99.90
3528;DHT22;1778;47.966;7.854;2024-03-02T02:19:47;3.70;99.90
3528;DHT22;1778;47.966;7.854;2024-03-02T02:20:48;3.60;99.90
3528;DHT22;1778;47.966;7.854;2024-03-02T02:21:50;3.70;99.90
3528;DHT22;1778;47.966;7.854;2024-03-02T02:23:55;3.70;99.90
3528;DHT22;1778;47.966;7.854;2024-03-02T02:24:57;3.80;99.90
3528;DHT22;1778;47.966;7.854;2024-03-02T02:25:58;3.70;99.90
3528;DHT22;1778;47.966;7.854;2024-03-02T02:27:00;3.80;99.90
3528;DHT22;1778;47.966;7.854;2024-03-02T02:28:02;3.80;99.90
3528;DHT22;1778;47.966;7.854;2024-03-02T02:29:03;3.80;99.90
3528;DHT22;1778;47.966;7.854;2024-03-02T02:30:05;3.70;99.90
3528;DHT22;1778;47.966;7.854;2024-03-02T02:31:07;3.80;99.90
3528;DHT22;1778;47.966;7.854;2024-03-02T02:32:08;3.80;99.90
3528;DHT22;1778;47.966;7.854;2024-03-02T02:33:10;3.80;99.90
3528;DHT22;1778;47.966;7.854;2024-03-02T02:34:14;3.80;99.90
3528;DHT22;1778;47.966;7.854;2024-03-02T02:35:15;3.80;99.90
3528;DHT22;1778;47.966;7.854;2024-03-02T02:36:17;3.70;99.90
3528;DHT22;1778;47.966;7.854;2024-03-02T02:37:18;3.70;99.90
3528;DHT22;1778;47.966;7.854;2024-03-02T02:38:20;3.70;99.90
3528;DHT22;1778;47.966;7.854;2024-03-02T02:39:22;3.70;99.90
3528;DHT22;1778;47.966;7.854;2024-03-02T02:40:24;3.80;99.90
3528;DHT22;1778;47.966;7.854;2024-03-02T02:41:25;3.80;99.90
3528;DHT22;1778;47.966;7.854;2024-03-02T02:42:27;3.90;99.90
3528;DHT22;1778;47.966;7.854;2024-03-02T02:43:29;3.80;99.90
3528;DHT22;1778;47.966;7.854;2024-03-02T02:44:30;3.80;99.90
3528;DHT22;1778;47.966;7.854;2024-03-02T02:45:32;3.90;99.90
3528;DHT22;1778;47.966;7.854;2024-03-02T02:46:33;3.90;99.90
3528;DHT22;1778;47.966;7.854;2024-03-02T02:47:34;3.90;99.90
3528;DHT22;1778;47.966;7.854;2024-03-02T02:48:36;3.90;99.90
3528;DHT22;1778;47.966;7.854;2024-03-02T02:49:38;4.00;99.90
3528;DHT22;1778;47.966;7.854;2024-03-02T02:50:41;3.90;99.90
3528;DHT22;1778;47.966;7.854;2024-03-02T02:51:42;3.90;99.90
3528;DHT22;1778;47.966;7.854;2024-03-02T02:52:44;4.00;99.90
3528;DHT22;1778;47.966;7.854;2024-03-02T02:53:45;4.00;99.90
3528;DHT22;1778;47.966;7.854;2024-03-02T02:54:47;3.90;99.90
3528;DHT22;1778;47.966;7.854;2024-03-02T02:55:48;4.00;99.90
3528;DHT22;1778;47.966;7.854;2024-03-02T02:56:50;4.00;99.90
3528;DHT22;1778;47.966;7.854;2024-03-02T02:57:51;4.00;99.90
3528;DHT22;1778;47.966;7.854;2024-03-02T02:58:53;4.00;99.90
3528;DHT22;1778;47.966;7.854;2024-03-02T02:59:54;4.00;99.90
3528;DHT22;1778;47.966;7.854;2024-03-02T03:00:56;4.00;99.90
3528;DHT22;1778;47.966;7.854;2024-03-02T03:01:58;4.00;99.90
3528;DHT22;1778;47.966;7.854;2024-03-02T03:02:59;4.10;99.90
3528;DHT22;1778;47.966;7.854;2024-03-02T03:04:00;4.00;99.90
3528;DHT22;1778;47.966;7.854;2024-03-02T03:05:02;4.00;99.90
3528;DHT22;1778;47.966;7.854;2024-03-02T03:06:03;4.00;99.90
3528;DHT22;1778;47.966;7.854;2024-03-02T03:07:04;4.00;99.90
3528;DHT22;1778;47.966;7.854;2024-03-02T03:08:06;4.00;99.90
3528;DHT22;1778;47.966;7.854;2024-03-02T03:09:07;4.00;99.90
3528;DHT22;1778;47.966;7.854;2024-03-02T03:10:09;4.10;99.90
3528;DHT22;1778;47.966;7.854;2024-03-02T03:11:10;4.10;99.90
3528;DHT22;1778;47.966;7.854;2024-03-02T03:12:12;4.00;99.90
3528;DHT22;1778;47.966;7.854;2024-03-02T03:13:13;4.00;99.90
3528;DHT22;1778;47.966;7.854;2024-03-02T03:14:14;4.00;99.90
3528;DHT22;1778;47.966;7.854;2024-03-02T03:15:16;3.90;99.90
3528;DHT22;1778;47.966;7.854;2024-03-02T03:16:18;3.90;99.90
3528;DHT22;1778;47.966;7.854;2024-03-02T03:17:20;3.90;99.90
3528;DHT22;1778;47.966;7.854;2024-03-02T03:18:22;3.90;99.90
3528;DHT22;1778;47.966;7.854;2024-03-02T03:19:23;4.00;99.90
3528;DHT22;1778;47.966;7.854;2024-03-02T03:20:24;3.90;99.90
3528;DHT22;1778;47.966;7.854;2024-03-02T03:21:26;3.90;99.90
3528;DHT22;1778;47.966;7.854;2024-03-02T03:22:27;3.90;99.90
3528;DHT22;1778;47.966;7.854;2024-03-02T03:23:29;3.90;99.90
3528;DHT22;1778;47.966;7.854;2024-03-02T03:24:30;3.90;99.90
3528;DHT22;1778;47.966;7.854;2024-03-02T03:25:32;3.90;99.90
3528;DHT22;1778;47.966;7.854;2024-03-02T03:26:36;3.90;99.90
3528;DHT22;1778;47.966;7.854;2024-03-02T03:27:38;3.90;99.90
3528;DHT22;1778;47.966;7.854;2024-03-02T03:28:39;3.90;99.90
3528;DHT22;1778;47.966;7.854;2024-03-02T03:29:40;3.90;99.90
3528;DHT22;1778;47.966;7.854;2024-03-02T03:30:42;3.90;99.90
3528;DHT22;1778;47.966;7.854;2024-03-02T03:31:43;3.90;99.90
3528;DHT22;1778;47.966;7.854;2024-03-02T03:32:44;4.00;99.90
3528;DHT22;1778;47.966;7.854;2024-03-02T03:33:46;3.90;99.90
3528;DHT22;1778;47.966;7.854;2024-03-02T03:34:47;3.90;99.90
3528;DHT22;1778;47.966;7.854;2024-03-02T03:35:50;3.90;99.90
3528;DHT22;1778;47.966;7.854;2024-03-02T03:36:51;4.00;99.90
3528;DHT22;1778;47.966;7.854;2024-03-02T03:37:53;4.10;99.90
3528;DHT22;1778;47.966;7.854;2024-03-02T03:38:54;4.00;99.90
3528;DHT22;1778;47.966;7.854;2024-03-02T03:39:55;4.10;99.90
3528;DHT22;1778;47.966;7.854;2024-03-02T03:40:57;4.10;99.90
3528;DHT22;1778;47.966;7.854;2024-03-02T03:41:59;4.00;99.90
3528;DHT22;1778;47.966;7.854;2024-03-02T03:43:00;4.00;99.90
3528;DHT22;1778;47.966;7.854;2024-03-02T03:44:01;4.10;99.90
3528;DHT22;1778;47.966;7.854;2024-03-02T03:45:03;4.00;99.90
3528;DHT22;1778;47.966;7.854;2024-03-02T03:46:07;4.10;99.90
3528;DHT22;1778;47.966;7.854;2024-03-02T03:47:08;4.00;99.90
3528;DHT22;1778;47.966;7.854;2024-03-02T03:48:10;4.00;99.90
3528;DHT22;1778;47.966;7.854;2024-03-02T03:49:11;4.10;99.90
3528;DHT22;1778;47.966;7.854;2024-03-02T03:50:13;4.10;99.90
3528;DHT22;1778;47.966;7.854;2024-03-02T03:51:14;4.00;99.90
3528;DHT22;1778;47.966;7.854;2024-03-02T03:52:15;4.00;99.90
3528;DHT22;1778;47.966;7.854;2024-03-02T03:53:17;4.10;99.90
3528;DHT22;1778;47.966;7.854;2024-03-02T03:54:19;4.10;99.90
3528;DHT22;1778;47.966;7.854;2024-03-02T03:55:20;4.10;99.90
3528;DHT22;1778;47.966;7.854;2024-03-02T03:56:22;4.10;99.90
3528;DHT22;1778;47.966;7.854;2024-03-02T03:57:23;4.10;99.90
3528;DHT22;1778;47.966;7.854;2024-03-02T03:58:25;4.00;99.90
3528;DHT22;1778;47.966;7.854;2024-03-02T03:59:26;4.10;99.90
3528;DHT22;1778;47.966;7.854;2024-03-02T04:00:27;4.10;99.90
3528;DHT22;1778;47.966;7.854;2024-03-02T04:01:29;4.10;99.90
3528;DHT22;1778;47.966;7.854;2024-03-02T04:02:30;4.20;99.90
3528;DHT22;1778;47.966;7.854;2024-03-02T04:03:32;4.20;99.90
3528;DHT22;1778;47.966;7.854;2024-03-02T04:04:35;4.20;99.90
3528;DHT22;1778;47.966;7.854;2024-03-02T04:05:36;4.30;99.90
3528;DHT22;1778;47.966;7.854;2024-03-02T04:06:38;4.20;99.90
3528;DHT22;1778;47.966;7.854;2024-03-02T04:07:39;4.20;99.90
3528;DHT22;1778;47.966;7.854;2024-03-02T04:08:44;4.20;99.90
3528;DHT22;1778;47.966;7.854;2024-03-02T04:09:45;4.30;99.90
3528;DHT22;1778;47.966;7.854;2024-03-02T04:10:47;4.20;99.90
3528;DHT22;1778;47.966;7.854;2024-03-02T04:11:49;4.20;99.90
3528;DHT22;1778;47.966;7.854;2024-03-02T04:12:50;4.20;99.90
3528;DHT22;1778;47.966;7.854;2024-03-02T04:13:52;4.30;99.90
3528;DHT22;1778;47.966;7.854;2024-03-02T04:14:58;4.30;99.90
3528;DHT22;1778;47.966;7.854;2024-03-02T04:15:59;4.40;99.90
3528;DHT22;1778;47.966;7.854;2024-03-02T04:17:01;4.40;99.90
3528;DHT22;1778;47.966;7.854;2024-03-02T04:18:03;4.40;99.90
3528;DHT22;1778;47.966;7.854;2024-03-02T04:19:04;4.30;99.90
3528;DHT22;1778;47.966;7.854;2024-03-02T04:20:06;4.30;99.90
3528;DHT22;1778;47.966;7.854;2024-03-02T04:21:09;4.30;99.90
3528;DHT22;1778;47.966;7.854;2024-03-02T04:22:10;4.40;99.90
3528;DHT22;1778;47.966;7.854;2024-03-02T04:23:21;4.40;99.90
3528;DHT22;1778;47.966;7.854;2024-03-02T04:24:23;4.40;99.90
3528;DHT22;1778;47.966;7.854;2024-03-02T04:25:24;4.40;99.90
3528;DHT22;1778;47.966;7.854;2024-03-02T04:26:26;4.40;99.90
3528;DHT22;1778;47.966;7.854;2024-03-02T04:27:28;4.40;99.90
3528;DHT22;1778;47.966;7.854;2024-03-02T04:28:29;4.40;99.90
3528;DHT22;1778;47.966;7.854;2024-03-02T04:29:30;4.40;99.90
3528;DHT22;1778;47.966;7.854;2024-03-02T04:30:32;4.30;99.90
3528;DHT22;1778;47.966;7.854;2024-03-02T04:31:34;4.30;99.90
3528;DHT22;1778;47.966;7.854;2024-03-02T04:32:35;4.40;99.90
3528;DHT22;1778;47.966;7.854;2024-03-02T04:33:38;4.40;99.90
3528;DHT22;1778;47.966;7.854;2024-03-02T04:34:39;4.40;99.90
3528;DHT22;1778;47.966;7.854;2024-03-02T04:35:40;4.40;99.90
3528;DHT22;1778;47.966;7.854;2024-03-02T04:36:42;4.40;99.90
3528;DHT22;1778;47.966;7.854;2024-03-02T04:37:43;4.50;99.90
3528;DHT22;1778;47.966;7.854;2024-03-02T04:38:45;4.60;99.90
3528;DHT22;1778;47.966;7.854;2024-03-02T04:39:46;4.50;99.90
3528;DHT22;1778;47.966;7.854;2024-03-02T04:40:47;4.50;99.90
3528;DHT22;1778;47.966;7.854;2024-03-02T04:41:49;4.50;99.90
3528;DHT22;1778;47.966;7.854;2024-03-02T04:42:50;4.60;99.90
3528;DHT22;1778;47.966;7.854;2024-03-02T04:43:53;4.60;99.90
3528;DHT22;1778;47.966;7.854;2024-03-02T04:44:54;4.60;99.90
3528;DHT22;1778;47.966;7.854;2024-03-02T04:45:55;4.70;99.90
3528;DHT22;1778;47.966;7.854;2024-03-02T04:46:57;4.80;99.90
3528;DHT22;1778;47.966;7.854;2024-03-02T04:47:59;4.80;99.90
3528;DHT22;1778;47.966;7.854;2024-03-02T04:49:00;4.80;99.90
3528;DHT22;1778;47.966;7.854;2024-03-02T04:50:02;4.80;99.90
3528;DHT22;1778;47.966;7.854;2024-03-02T04:51:03;4.90;99.90
3528;DHT22;1778;47.966;7.854;2024-03-02T04:52:05;4.90;99.90
3528;DHT22;1778;47.966;7.854;2024-03-02T04:53:07;5.00;99.90
3528;DHT22;1778;47.966;7.854;2024-03-02T04:54:09;5.00;99.90
3528;DHT22;1778;47.966;7.854;2024-03-02T04:55:10;5.00;99.90
3528;DHT22;1778;47.966;7.854;2024-03-02T04:56:26;5.10;99.90
3528;DHT22;1778;47.966;7.854;2024-03-02T04:57:27;5.10;99.90
3528;DHT22;1778;47.966;7.854;2024-03-02T04:58:29;5.20;99.90
3528;DHT22;1778;47.966;7.854;2024-03-02T04:59:31;5.30;99.90
3528;DHT22;1778;47.966;7.854;2024-03-02T05:00:35;5.30;99.90
3528;DHT22;1778;47.966;7.854;2024-03-02T05:01:37;5.30;99.90
3528;DHT22;1778;47.966;7.854;2024-03-02T05:02:38;5.40;99.90
3528;DHT22;1778;47.966;7.854;2024-03-02T05:03:40;5.40;99.90
3528;DHT22;1778;47.966;7.854;2024-03-02T05:04:41;5.40;99.90
3528;DHT22;1778;47.966;7.854;2024-03-02T05:05:43;5.40;99.90
3528;DHT22;1778;47.966;7.854;2024-03-02T05:06:44;5.40;99.90
3528;DHT22;1778;47.966;7.854;2024-03-02T05:07:52;5.50;99.90
3528;DHT22;1778;47.966;7.854;2024-03-02T05:08:53;5.50;99.90
3528;DHT22;1778;47.966;7.854;2024-03-02T05:09:55;5.60;99.90
3528;DHT22;1778;47.966;7.854;2024-03-02T05:10:56;5.70;99.90
3528;DHT22;1778;47.966;7.854;2024-03-02T05:12:18;5.80;99.90
3528;DHT22;1778;47.966;7.854;2024-03-02T05:13:38;5.80;99.90
3528;DHT22;1778;47.966;7.854;2024-03-02T05:14:39;5.80;99.90
3528;DHT22;1778;47.966;7.854;2024-03-02T05:15:40;5.80;99.90
3528;DHT22;1778;47.966;7.854;2024-03-02T05:16:42;5.80;99.90
3528;DHT22;1778;47.966;7.854;2024-03-02T05:17:43;5.80;99.90
3528;DHT22;1778;47.966;7.854;2024-03-02T05:18:45;5.90;99.90
3528;DHT22;1778;47.966;7.854;2024-03-02T05:19:46;5.90;99.90
3528;DHT22;1778;47.966;7.854;2024-03-02T05:20:47;5.90;99.90
3528;DHT22;1778;47.966;7.854;2024-03-02T05:21:49;5.90;99.90
3528;DHT22;1778;47.966;7.854;2024-03-02T05:22:51;5.90;99.90
3528;DHT22;1778;47.966;7.854;2024-03-02T05:23:52;5.90;99.90
3528;DHT22;1778;47.966;7.854;2024-03-02T05:24:53;5.90;99.90
3528;DHT22;1778;47.966;7.854;2024-03-02T05:25:55;5.90;99.90
3528;DHT22;1778;47.966;7.854;2024-03-02T05:26:56;5.90;99.90
3528;DHT22;1778;47.966;7.854;2024-03-02T05:27:57;5.90;99.90
3528;DHT22;1778;47.966;7.854;2024-03-02T05:28:59;5.90;99.90
3528;DHT22;1778;47.966;7.854;2024-03-02T05:30:01;5.90;99.90
3528;DHT22;1778;47.966;7.854;2024-03-02T05:31:03;5.90;99.90
3528;DHT22;1778;47.966;7.854;2024-03-02T05:32:04;5.90;99.90
3528;DHT22;1778;47.966;7.854;2024-03-02T05:33:05;6.00;99.90
3528;DHT22;1778;47.966;7.854;2024-03-02T05:34:07;5.90;99.90
3528;DHT22;1778;47.966;7.854;2024-03-02T05:35:09;5.90;99.90
3528;DHT22;1778;47.966;7.854;2024-03-02T05:36:12;5.90;99.90
3528;DHT22;1778;47.966;7.854;2024-03-02T05:37:13;5.90;99.90
3528;DHT22;1778;47.966;7.854;2024-03-02T05:38:15;5.90;99.90
3528;DHT22;1778;47.966;7.854;2024-03-02T05:39:16;5.80;99.90
3528;DHT22;1778;47.966;7.854;2024-03-02T05:40:18;5.80;99.90
3528;DHT22;1778;47.966;7.854;2024-03-02T05:41:22;5.80;99.90
3528;DHT22;1778;47.966;7.854;2024-03-02T05:42:23;5.90;99.90
3528;DHT22;1778;47.966;7.854;2024-03-02T05:43:25;5.80;99.90
3528;DHT22;1778;47.966;7.854;2024-03-02T05:44:26;5.80;99.90
3528;DHT22;1778;47.966;7.854;2024-03-02T05:45:28;5.90;99.90
3528;DHT22;1778;47.966;7.854;2024-03-02T05:46:29;5.90;99.90
3528;DHT22;1778;47.966;7.854;2024-03-02T05:47:30;5.90;99.90
3528;DHT22;1778;47.966;7.854;2024-03-02T05:48:32;5.90;99.90
3528;DHT22;1778;47.966;7.854;2024-03-02T05:49:33;6.00;99.90
3528;DHT22;1778;47.966;7.854;2024-03-02T05:50:35;6.00;99.90
3528;DHT22;1778;47.966;7.854;2024-03-02T05:51:37;6.00;99.90
3528;DHT22;1778;47.966;7.854;2024-03-02T05:52:38;6.00;99.90
3528;DHT22;1778;47.966;7.854;2024-03-02T05:53:40;6.00;99.90
3528;DHT22;1778;47.966;7.854;2024-03-02T05:54:41;6.00;99.90
3528;DHT22;1778;47.966;7.854;2024-03-02T05:55:43;6.00;99.90
3528;DHT22;1778;47.966;7.854;2024-03-02T05:56:46;6.00;99.90
3528;DHT22;1778;47.966;7.854;2024-03-02T05:57:48;6.10;99.90
3528;DHT22;1778;47.966;7.854;2024-03-02T05:59:07;6.10;99.90
3528;DHT22;1778;47.966;7.854;2024-03-02T06:00:14;6.10;99.90
3528;DHT22;1778;47.966;7.854;2024-03-02T06:01:19;6.10;99.90
3528;DHT22;1778;47.966;7.854;2024-03-02T06:02:20;6.10;99.90
3528;DHT22;1778;47.966;7.854;2024-03-02T06:03:22;6.10;99.90
3528;DHT22;1778;47.966;7.854;2024-03-02T06:04:23;6.10;99.90
3528;DHT22;1778;47.966;7.854;2024-03-02T06:05:25;6.10;99.90
3528;DHT22;1778;47.966;7.854;2024-03-02T06:06:26;6.10;99.90
3528;DHT22;1778;47.966;7.854;2024-03-02T06:07:30;6.10;99.90
3528;DHT22;1778;47.966;7.854;2024-03-02T06:08:32;6.10;99.90
3528;DHT22;1778;47.966;7.854;2024-03-02T06:09:33;6.10;99.90
3528;DHT22;1778;47.966;7.854;2024-03-02T06:10:35;6.10;99.90
3528;DHT22;1778;47.966;7.854;2024-03-02T06:11:37;6.10;99.90
3528;DHT22;1778;47.966;7.854;2024-03-02T06:12:39;6.10;99.90
3528;DHT22;1778;47.966;7.854;2024-03-02T06:13:41;6.10;99.90
3528;DHT22;1778;47.966;7.854;2024-03-02T06:14:43;6.10;99.90
3528;DHT22;1778;47.966;7.854;2024-03-02T06:15:44;6.10;99.90
3528;DHT22;1778;47.966;7.854;2024-03-02T06:16:46;6.10;99.90
3528;DHT22;1778;47.966;7.854;2024-03-02T06:17:47;6.10;99.90
3528;DHT22;1778;47.966;7.854;2024-03-02T06:18:48;6.20;99.90
3528;DHT22;1778;47.966;7.854;2024-03-02T06:19:50;6.20;99.90
3528;DHT22;1778;47.966;7.854;2024-03-02T06:20:51;6.20;99.90
3528;DHT22;1778;47.966;7.854;2024-03-02T06:21:53;6.20;99.90
3528;DHT22;1778;47.966;7.854;2024-03-02T06:22:55;6.20;99.90
3528;DHT22;1778;47.966;7.854;2024-03-02T06:23:57;6.30;99.90
3528;DHT22;1778;47.966;7.854;2024-03-02T06:24:58;6.30;99.90
3528;DHT22;1778;47.966;7.854;2024-03-02T06:26:00;6.30;99.90
3528;DHT22;1778;47.966;7.854;2024-03-02T06:27:01;6.30;99.90
3528;DHT22;1778;47.966;7.854;2024-03-02T06:28:03;6.20;99.90
3528;DHT22;1778;47.966;7.854;2024-03-02T06:29:05;6.20;99.90
3528;DHT22;1778;47.966;7.854;2024-03-02T06:30:07;6.20;99.90
3528;DHT22;1778;47.966;7.854;2024-03-02T06:31:09;6.20;99.90
3528;DHT22;1778;47.966;7.854;2024-03-02T06:32:11;6.20;99.90
3528;DHT22;1778;47.966;7.854;2024-03-02T06:33:12;6.20;99.90
3528;DHT22;1778;47.966;7.854;2024-03-02T06:34:14;6.30;99.90
3528;DHT22;1778;47.966;7.854;2024-03-02T06:35:15;6.20;99.90
3528;DHT22;1778;47.966;7.854;2024-03-02T06:36:16;6.20;99.90
3528;DHT22;1778;47.966;7.854;2024-03-02T06:37:18;6.30;99.90
3528;DHT22;1778;47.966;7.854;2024-03-02T06:38:19;6.30;99.90
3528;DHT22;1778;47.966;7.854;2024-03-02T06:39:20;6.30;99.90
3528;DHT22;1778;47.966;7.854;2024-03-02T06:40:22;6.30;99.90
3528;DHT22;1778;47.966;7.854;2024-03-02T06:41:23;6.30;99.90
3528;DHT22;1778;47.966;7.854;2024-03-02T06:42:24;6.30;99.90
3528;DHT22;1778;47.966;7.854;2024-03-02T06:43:26;6.20;99.90
3528;DHT22;1778;47.966;7.854;2024-03-02T06:44:27;6.20;99.90
3528;DHT22;1778;47.966;7.854;2024-03-02T06:45:30;6.20;99.90
3528;DHT22;1778;47.966;7.854;2024-03-02T06:46:32;6.20;99.90
3528;DHT22;1778;47.966;7.854;2024-03-02T06:47:34;6.20;99.90
3528;DHT22;1778;47.966;7.854;2024-03-02T06:48:35;6.20;99.90
3528;DHT22;1778;47.966;7.854;2024-03-02T06:49:37;6.20;99.90
3528;DHT22;1778;47.966;7.854;2024-03-02T06:50:38;6.20;99.90
3528;DHT22;1778;47.966;7.854;2024-03-02T06:51:40;6.20;99.90
3528;DHT22;1778;47.966;7.854;2024-03-02T06:52:42;6.20;99.90
3528;DHT22;1778;47.966;7.854;2024-03-02T06:53:45;6.20;99.90
3528;DHT22;1778;47.966;7.854;2024-03-02T06:54:47;6.20;99.90